Time;durP1;ratioP1;P1;durP2;ratioP2;P2;SDS_P1;SDS_P2;PMS_P1;PMS_P2;Temp;Humidity;BMP_temperature;BMP_pressure;BME280_temperature;BME280_humidity;BME280_pressure;Samples;Min_cycle;Max_cycle;Signal;HPM_P1;HPM_P2
2022/04/29 00:02:09;;;;;;;21.80;12.63;;;8.40;99.90;;;;;;5074731;28;20248;-65
2022/04/29 00:04:36;;;;;;;16.57;12.17;;;8.40;99.90;;;;;;5075802;28;20202;-65
2022/04/29 00:07:03;;;;;;;23.33;13.27;;;8.40;99.90;;;;;;5075759;28;20169;-66
2022/04/29 00:09:29;;;;;;;16.90;11.90;;;8.30;99.90;;;;;;5075426;28;20260;-64
2022/04/29 00:11:55;;;;;;;21.13;12.53;;;8.30;99.90;;;;;;5075407;28;20288;-64
2022/04/29 00:14:23;;;;;;;18.73;11.80;;;8.30;99.90;;;;;;5076168;28;20597;-64
2022/04/29 00:16:49;;;;;;;16.77;12.17;;;8.30;99.90;;;;;;5075494;28;20181;-64
2022/04/29 00:19:16;;;;;;;16.23;10.93;;;8.20;99.90;;;;;;5075498;28;20170;-65
2022/04/29 00:21:42;;;;;;;15.43;10.80;;;8.20;99.90;;;;;;5075466;28;20158;-64
2022/04/29 00:24:12;;;;;;;16.47;10.67;;;8.10;99.90;;;;;;5075207;28;20580;-65
2022/04/29 00:26:39;;;;;;;14.97;11.03;;;7.90;99.90;;;;;;5075390;28;20154;-65
2022/04/29 00:29:06;;;;;;;17.43;11.07;;;7.80;99.90;;;;;;5075471;28;20647;-64
2022/04/29 00:31:32;;;;;;;18.37;11.70;;;7.80;99.90;;;;;;5075113;28;20643;-64
2022/04/29 00:33:58;;;;;;;15.00;10.53;;;7.80;99.90;;;;;;5075233;28;20196;-65
2022/04/29 00:36:24;;;;;;;14.87;11.13;;;7.80;99.90;;;;;;5075996;28;20227;-64
2022/04/29 00:38:50;;;;;;;16.67;12.40;;;7.90;99.90;;;;;;5074292;28;20189;-64
2022/04/29 00:41:22;;;;;;;19.93;13.27;;;7.90;99.90;;;;;;5076423;28;20154;-64
2022/04/29 00:44:07;;;;;;;17.27;12.20;;;7.90;99.90;;;;;;5075700;28;20190;-64
2022/04/29 00:46:37;;;;;;;18.67;12.50;;;7.80;99.90;;;;;;5073997;28;20170;-64
2022/04/29 00:49:05;;;;;;;24.90;13.00;;;7.70;99.90;;;;;;5075843;28;20209;-64
2022/04/29 00:51:32;;;;;;;18.10;12.07;;;7.60;99.90;;;;;;5075319;28;20223;-64
2022/04/29 00:53:58;;;;;;;15.00;11.33;;;7.50;99.90;;;;;;5074578;28;20189;-64
2022/04/29 00:56:28;;;;;;;22.87;12.33;;;7.30;99.90;;;;;;5075319;28;20162;-64
2022/04/29 00:59:15;;;;;;;18.50;11.80;;;7.20;99.90;;;;;;5073607;28;20181;-64
2022/04/29 01:01:43;;;;;;;16.00;11.57;;;7.30;99.90;;;;;;5075318;28;20165;-65
2022/04/29 01:04:14;;;;;;;20.00;11.77;;;7.30;99.90;;;;;;5074753;28;20237;-64
2022/04/29 01:06:40;;;;;;;20.33;11.37;;;7.40;99.90;;;;;;5075858;28;20185;-65
2022/04/29 01:09:05;;;;;;;16.33;11.80;;;7.50;99.90;;;;;;5074660;28;20213;-65
2022/04/29 01:11:32;;;;;;;15.20;11.57;;;7.60;99.90;;;;;;5074500;28;20669;-64
2022/04/29 01:13:57;;;;;;;19.20;12.27;;;7.60;99.90;;;;;;5074833;28;20574;-65
2022/04/29 01:16:23;;;;;;;16.37;12.47;;;7.50;99.90;;;;;;5074744;28;20174;-65
2022/04/29 01:18:52;;;;;;;19.33;13.13;;;7.50;99.90;;;;;;5074549;28;20630;-65
2022/04/29 01:21:18;;;;;;;20.07;12.30;;;7.50;99.90;;;;;;5074432;28;20178;-64
2022/04/29 01:23:44;;;;;;;20.93;12.77;;;7.40;99.90;;;;;;5074163;28;20247;-64
2022/04/29 01:26:15;;;;;;;16.97;12.23;;;7.40;99.90;;;;;;5074509;28;20619;-64
2022/04/29 01:28:43;;;;;;;18.67;12.73;;;7.30;99.90;;;;;;5074154;28;20166;-64
2022/04/29 01:31:13;;;;;;;20.30;12.07;;;7.30;99.90;;;;;;5074110;28;20172;-64
2022/04/29 01:33:45;;;;;;;20.10;12.20;;;7.20;99.90;;;;;;5074110;28;20585;-64
2022/04/29 01:36:11;;;;;;;19.13;13.20;;;7.20;99.90;;;;;;5073968;28;20163;-64
2022/04/29 01:38:38;;;;;;;18.63;12.87;;;7.20;99.90;;;;;;5073665;28;20682;-64
2022/04/29 01:41:07;;;;;;;18.40;12.40;;;7.20;99.90;;;;;;5073982;28;20227;-64
2022/04/29 01:43:34;;;;;;;24.10;12.70;;;7.30;99.90;;;;;;5072561;28;20201;-64
2022/04/29 01:46:01;;;;;;;20.87;12.43;;;7.30;99.90;;;;;;5074124;28;20181;-65
2022/04/29 01:48:27;;;;;;;15.27;12.30;;;7.20;99.90;;;;;;5073869;28;20174;-64
2022/04/29 01:50:53;;;;;;;18.83;12.60;;;7.20;99.90;;;;;;5073771;28;20181;-64
2022/04/29 01:53:19;;;;;;;20.23;12.53;;;7.30;99.90;;;;;;5073822;28;20682;-64
2022/04/29 01:55:44;;;;;;;21.70;13.40;;;7.30;99.90;;;;;;5074454;28;20170;-64
2022/04/29 01:58:10;;;;;;;18.90;12.40;;;7.20;99.90;;;;;;5073804;28;20171;-64
2022/04/29 02:00:36;;;;;;;20.27;12.60;;;7.20;99.90;;;;;;5073744;28;20174;-64
2022/04/29 02:03:02;;;;;;;20.47;12.97;;;7.20;99.90;;;;;;5074055;28;20196;-64
2022/04/29 02:05:28;;;;;;;17.63;11.73;;;7.10;99.90;;;;;;5073582;28;20182;-64
2022/04/29 02:07:53;;;;;;;18.73;12.63;;;7.10;99.90;;;;;;5072712;28;20196;-64
2022/04/29 02:10:20;;;;;;;17.47;12.47;;;7.00;99.90;;;;;;5073449;28;20181;-65
2022/04/29 02:12:46;;;;;;;19.43;12.40;;;7.00;99.90;;;;;;5073561;28;20205;-64
2022/04/29 02:15:12;;;;;;;19.83;12.87;;;7.00;99.90;;;;;;5073473;28;20204;-64
2022/04/29 02:17:38;;;;;;;18.67;13.20;;;7.00;99.90;;;;;;5073539;28;20202;-64
2022/04/29 02:20:04;;;;;;;18.50;12.63;;;7.00;99.90;;;;;;5074041;28;20197;-64
2022/04/29 02:22:30;;;;;;;19.50;12.07;;;6.90;99.90;;;;;;5073861;28;20169;-64
2022/04/29 02:24:58;;;;;;;20.30;12.60;;;6.80;99.90;;;;;;5073195;28;20546;-64
2022/04/29 02:27:23;;;;;;;19.73;13.10;;;6.80;99.90;;;;;;5073330;28;20235;-64
2022/04/29 02:29:49;;;;;;;18.30;12.97;;;6.80;99.90;;;;;;5073265;28;20182;-65
2022/04/29 02:32:15;;;;;;;19.73;12.63;;;6.80;99.90;;;;;;5073127;28;20201;-64
2022/04/29 02:34:41;;;;;;;19.10;13.40;;;6.80;99.90;;;;;;5073260;28;20642;-65
2022/04/29 02:37:07;;;;;;;20.27;13.63;;;6.70;99.90;;;;;;5073826;28;20166;-65
2022/04/29 02:39:33;;;;;;;20.87;13.33;;;6.70;99.90;;;;;;5072803;28;20181;-64
2022/04/29 02:41:59;;;;;;;23.87;13.37;;;6.80;99.90;;;;;;5073531;28;20239;-65
2022/04/29 02:44:25;;;;;;;19.73;14.00;;;6.70;99.90;;;;;;5073273;28;20209;-65
2022/04/29 02:47:08;;;;;;;19.83;13.67;;;6.80;99.90;;;;;;5073570;28;20265;-64
2022/04/29 02:49:43;;;;;;;19.47;13.30;;;6.80;99.90;;;;;;5073484;28;20185;-64
2022/04/29 02:52:11;;;;;;;23.33;14.87;;;6.80;99.90;;;;;;5071844;28;20204;-65
2022/04/29 02:54:38;;;;;;;21.83;14.67;;;6.80;99.90;;;;;;5072783;28;20197;-65
2022/04/29 02:57:04;;;;;;;22.40;14.97;;;6.80;99.90;;;;;;5073385;28;20166;-64
2022/04/29 02:59:30;;;;;;;21.20;14.93;;;6.80;99.90;;;;;;5071763;28;20550;-65
2022/04/29 03:01:55;;;;;;;26.37;16.00;;;6.80;99.90;;;;;;5073000;28;20182;-68
2022/04/29 03:04:22;;;;;;;25.20;15.13;;;6.80;99.90;;;;;;5072911;28;20604;-64
2022/04/29 03:06:48;;;;;;;27.47;15.20;;;6.80;99.90;;;;;;5072872;28;20178;-64
2022/04/29 03:09:14;;;;;;;23.93;14.80;;;6.70;99.90;;;;;;5072525;28;20213;-64
2022/04/29 03:11:40;;;;;;;18.33;13.20;;;6.70;99.90;;;;;;5071447;28;20225;-64
2022/04/29 03:14:06;;;;;;;21.27;13.67;;;6.70;99.90;;;;;;5073355;28;20198;-64
2022/04/29 03:16:33;;;;;;;24.17;14.10;;;6.70;99.90;;;;;;5073214;28;20215;-64
2022/04/29 03:18:59;;;;;;;18.67;13.07;;;6.60;99.90;;;;;;5073162;28;20511;-64
2022/04/29 03:21:25;;;;;;;24.37;14.40;;;6.60;99.90;;;;;;5075437;28;20185;-64
2022/04/29 03:23:51;;;;;;;17.60;13.13;;;6.60;99.90;;;;;;5076149;28;20559;-64
2022/04/29 03:26:17;;;;;;;27.67;14.23;;;6.60;99.90;;;;;;5076639;28;20178;-64
2022/04/29 03:28:43;;;;;;;22.63;14.60;;;6.60;99.90;;;;;;5076705;28;20174;-64
2022/04/29 03:31:09;;;;;;;18.93;13.83;;;6.50;99.90;;;;;;5076257;28;20185;-64
2022/04/29 03:33:35;;;;;;;22.73;14.17;;;6.60;99.90;;;;;;5076206;28;20212;-64
2022/04/29 03:36:00;;;;;;;18.00;13.60;;;6.50;99.90;;;;;;5076269;28;20184;-64
2022/04/29 03:38:27;;;;;;;20.30;14.47;;;6.50;99.90;;;;;;5075880;28;20189;-64
2022/04/29 03:40:53;;;;;;;19.37;14.83;;;6.50;99.90;;;;;;5076558;28;20588;-65
2022/04/29 03:43:20;;;;;;;22.30;13.57;;;6.50;99.90;;;;;;5076247;28;20658;-64
2022/04/29 03:45:46;;;;;;;23.77;14.50;;;6.50;99.90;;;;;;5076158;28;20227;-65
2022/04/29 03:48:13;;;;;;;19.40;14.10;;;6.40;99.90;;;;;;5076074;28;20544;-64
2022/04/29 03:50:38;;;;;;;22.37;14.67;;;6.20;99.90;;;;;;5076110;28;20642;-64
2022/04/29 03:53:06;;;;;;;25.07;13.77;;;6.10;99.90;;;;;;5074368;28;20240;-63
2022/04/29 03:55:34;;;;;;;23.43;14.10;;;6.10;99.90;;;;;;5076095;28;20533;-64
2022/04/29 03:58:02;;;;;;;18.83;13.87;;;6.00;99.90;;;;;;5076053;28;20174;-64
2022/04/29 04:00:33;;;;;;;24.07;15.10;;;6.10;99.90;;;;;;5075821;28;20166;-64
2022/04/29 04:03:00;;;;;;;17.43;13.87;;;6.10;99.90;;;;;;5074465;28;20221;-65
2022/04/29 04:05:26;;;;;;;18.47;13.50;;;6.10;99.90;;;;;;5075983;28;20170;-64
2022/04/29 04:07:52;;;;;;;15.80;12.53;;;6.10;99.90;;;;;;5074306;28;20199;-64
2022/04/29 04:10:18;;;;;;;14.63;12.13;;;6.00;99.90;;;;;;5074006;28;20554;-67
2022/04/29 04:12:49;;;;;;;17.80;13.20;;;5.90;99.90;;;;;;5074255;28;20294;-64
2022/04/29 04:15:16;;;;;;;21.60;13.10;;;5.80;99.90;;;;;;5075559;28;20184;-65
2022/04/29 04:17:43;;;;;;;18.53;13.70;;;5.90;99.90;;;;;;5074170;28;20178;-64
2022/04/29 04:20:10;;;;;;;18.03;13.37;;;5.80;99.90;;;;;;5076075;28;20174;-65
2022/04/29 04:22:36;;;;;;;19.73;13.37;;;5.70;99.90;;;;;;5075340;28;20223;-65
2022/04/29 04:25:05;;;;;;;23.60;12.73;;;5.70;99.90;;;;;;5073945;28;20706;-65
2022/04/29 04:27:31;;;;;;;19.13;14.20;;;5.70;99.90;;;;;;5075283;28;20188;-65
2022/04/29 04:29:58;;;;;;;20.13;13.97;;;5.80;99.90;;;;;;5075219;28;20178;-65
2022/04/29 04:32:25;;;;;;;20.37;14.03;;;5.80;99.90;;;;;;5075179;28;20217;-65
2022/04/29 04:34:53;;;;;;;19.33;13.93;;;5.90;99.90;;;;;;5075371;28;20185;-63
2022/04/29 04:37:24;;;;;;;23.57;13.97;;;5.90;99.90;;;;;;5076267;28;20162;-62
2022/04/29 04:39:51;;;;;;;18.47;13.80;;;5.90;99.90;;;;;;5075419;28;20166;-64
2022/04/29 04:42:20;;;;;;;23.93;14.77;;;5.90;99.90;;;;;;5075056;28;20187;-64
2022/04/29 04:44:47;;;;;;;23.63;15.57;;;6.00;99.90;;;;;;5075031;28;20166;-64
2022/04/29 04:47:13;;;;;;;27.83;16.20;;;6.00;99.90;;;;;;5075214;28;20189;-64
2022/04/29 04:49:39;;;;;;;23.67;15.97;;;6.00;99.90;;;;;;5073752;28;20184;-64
2022/04/29 04:52:05;;;;;;;24.13;15.10;;;6.00;99.90;;;;;;5074982;28;20210;-64
2022/04/29 04:54:31;;;;;;;21.83;14.80;;;6.00;99.90;;;;;;5074411;28;20228;-64
2022/04/29 04:56:57;;;;;;;20.40;14.60;;;6.10;99.90;;;;;;5073495;28;20219;-64
2022/04/29 04:59:23;;;;;;;17.93;14.10;;;6.10;99.90;;;;;;5075145;28;20174;-64
2022/04/29 05:01:48;;;;;;;24.97;14.03;;;6.10;99.90;;;;;;5074658;28;20186;-64
2022/04/29 05:04:14;;;;;;;19.47;14.23;;;6.20;99.90;;;;;;5074635;28;20240;-64
2022/04/29 05:06:40;;;;;;;20.13;13.57;;;6.20;99.90;;;;;;5074427;28;20272;-64
2022/04/29 05:09:07;;;;;;;18.70;13.67;;;6.40;99.90;;;;;;5074191;28;20178;-64
2022/04/29 05:11:33;;;;;;;23.17;14.87;;;6.50;99.90;;;;;;5074159;28;20198;-64
2022/04/29 05:13:59;;;;;;;25.30;15.43;;;6.60;99.90;;;;;;5074768;28;20206;-64
2022/04/29 05:16:26;;;;;;;27.27;16.67;;;6.60;99.90;;;;;;5074581;28;20160;-64
2022/04/29 05:18:51;;;;;;;25.33;15.93;;;6.70;99.90;;;;;;5072973;28;20254;-65
2022/04/29 05:21:18;;;;;;;23.50;15.40;;;6.80;99.90;;;;;;5074436;28;20257;-64
2022/04/29 05:23:44;;;;;;;25.20;14.97;;;6.80;99.90;;;;;;5072889;28;20198;-64
2022/04/29 05:26:10;;;;;;;22.43;14.53;;;6.90;99.90;;;;;;5073215;28;20186;-64
2022/04/29 05:28:36;;;;;;;21.33;14.17;;;7.00;99.90;;;;;;5074457;28;20177;-64
2022/04/29 05:31:02;;;;;;;18.50;13.20;;;7.20;99.90;;;;;;5074101;28;20173;-64
2022/04/29 05:33:32;;;;;;;21.47;13.53;;;7.30;99.90;;;;;;5074221;28;20205;-64
2022/04/29 05:36:01;;;;;;;17.73;12.40;;;7.50;99.90;;;;;;5074279;28;20166;-64
2022/04/29 05:43:56;;;;;;;16.97;11.77;;;7.90;99.90;;;;;;5073143;28;20243;-64
2022/04/29 05:46:22;;;;;;;18.47;12.03;;;8.00;99.90;;;;;;5073963;28;20182;-64
2022/04/29 05:48:48;;;;;;;17.17;11.87;;;8.10;99.90;;;;;;5073778;28;20178;-64
2022/04/29 05:51:13;;;;;;;20.20;12.67;;;8.00;99.90;;;;;;5073758;28;20646;-64
2022/04/29 05:53:39;;;;;;;16.47;12.00;;;8.00;99.90;;;;;;5073576;28;20237;-64
2022/04/29 05:56:05;;;;;;;25.23;12.03;;;8.10;99.90;;;;;;5073782;28;20260;-64
2022/04/29 05:58:30;;;;;;;19.73;12.17;;;8.10;99.90;;;;;;5074150;28;20181;-64
2022/04/29 06:00:58;;;;;;;19.80;13.77;;;8.00;99.90;;;;;;5072305;28;20185;-64
2022/04/29 06:03:24;;;;;;;16.80;12.43;;;8.00;99.90;;;;;;5073600;28;20189;-64
2022/04/29 06:05:50;;;;;;;19.80;13.20;;;7.90;99.90;;;;;;5073489;28;20176;-64
2022/04/29 06:08:16;;;;;;;17.23;12.97;;;7.90;99.90;;;;;;5073649;28;20264;-64
2022/04/29 06:10:42;;;;;;;20.63;13.60;;;7.90;99.90;;;;;;5073171;28;20197;-65
2022/04/29 06:13:08;;;;;;;18.20;12.63;;;7.80;99.90;;;;;;5073223;28;20705;-64
2022/04/29 06:15:35;;;;;;;20.63;12.60;;;7.80;99.90;;;;;;5073600;28;20213;-64
2022/04/29 06:18:02;;;;;;;18.93;13.53;;;7.90;99.90;;;;;;5072003;28;20174;-64
2022/04/29 06:20:29;;;;;;;17.57;12.37;;;7.90;99.90;;;;;;5073424;28;20180;-64
2022/04/29 06:22:55;;;;;;;21.17;12.70;;;8.00;99.90;;;;;;5073569;28;20205;-64
2022/04/29 06:25:21;;;;;;;18.03;12.43;;;8.10;99.90;;;;;;5071772;28;20186;-64
2022/04/29 06:27:47;;;;;;;19.70;11.53;;;8.10;99.90;;;;;;5074026;28;20512;-64
2022/04/29 06:30:13;;;;;;;17.87;12.50;;;8.20;99.90;;;;;;5073192;28;20189;-64
2022/04/29 06:32:39;;;;;;;19.57;11.33;;;8.20;99.90;;;;;;5073149;28;20217;-64
2022/04/29 06:35:06;;;;;;;24.37;11.07;;;8.20;99.90;;;;;;5073233;28;20178;-64
2022/04/29 06:37:35;;;;;;;20.30;12.13;;;8.30;99.90;;;;;;5073001;28;20638;-64
2022/04/29 06:40:02;;;;;;;18.27;12.87;;;8.40;99.90;;;;;;5072944;28;20643;-64
2022/04/29 06:42:28;;;;;;;18.67;12.83;;;8.60;99.90;;;;;;5073054;28;20174;-64
2022/04/29 06:44:54;;;;;;;17.17;12.20;;;8.60;99.90;;;;;;5073114;28;20665;-64
2022/04/29 06:47:19;;;;;;;17.70;11.60;;;8.80;99.90;;;;;;5073329;28;20542;-65
2022/04/29 06:49:45;;;;;;;16.77;11.47;;;9.00;99.90;;;;;;5073033;28;20201;-64
2022/04/29 06:52:11;;;;;;;17.63;11.83;;;9.30;99.90;;;;;;5072936;28;20281;-64
2022/04/29 06:54:38;;;;;;;17.70;11.97;;;9.40;99.90;;;;;;5074215;28;20193;-64
2022/04/29 06:57:04;;;;;;;21.20;11.97;;;9.60;99.90;;;;;;5077180;28;20178;-64
2022/04/29 06:59:30;;;;;;;15.67;10.70;;;9.80;99.90;;;;;;5076928;28;20174;-64
2022/04/29 07:01:55;;;;;;;18.27;11.63;;;10.00;99.90;;;;;;5076800;28;20231;-65
2022/04/29 07:04:25;;;;;;;18.83;11.43;;;10.10;99.90;;;;;;5076740;28;20262;-64
2022/04/29 07:06:54;;;;;;;21.70;12.00;;;10.20;99.90;;;;;;5076815;28;20158;-64
2022/04/29 07:09:20;;;;;;;17.27;10.77;;;10.30;99.90;;;;;;5076313;28;20178;-64
2022/04/29 07:11:45;;;;;;;14.53;10.50;;;10.30;99.90;;;;;;5076385;28;20708;-64
2022/04/29 07:14:12;;;;;;;25.20;12.37;;;10.50;99.90;;;;;;5075310;28;20213;-64
2022/04/29 07:16:38;;;;;;;16.93;11.97;;;10.80;99.90;;;;;;5076496;28;20256;-64
2022/04/29 07:19:03;;;;;;;17.50;11.17;;;10.70;99.90;;;;;;5076614;28;20259;-64
2022/04/29 07:21:29;;;;;;;20.27;11.43;;;10.60;99.90;;;;;;5076521;28;20630;-64
2022/04/29 07:23:55;;;;;;;16.00;10.70;;;10.60;99.90;;;;;;5076437;28;20197;-65
2022/04/29 07:26:21;;;;;;;21.23;11.30;;;10.80;99.90;;;;;;5075545;28;20217;-69
2022/04/29 07:28:46;;;;;;;15.60;11.43;;;10.90;99.90;;;;;;5076773;28;20268;-64
2022/04/29 07:31:12;;;;;;;20.33;13.13;;;10.90;99.90;;;;;;5076419;28;20555;-64
2022/04/29 07:33:38;;;;;;;19.63;11.27;;;11.10;99.90;;;;;;5076437;28;20220;-64
2022/04/29 07:41:47;;;;;;;17.50;11.67;;;11.20;99.90;;;;;;5076397;28;20166;-65
2022/04/29 07:44:14;;;;;;;19.30;11.53;;;11.30;99.90;;;;;;5076072;28;20589;-64
2022/04/29 07:46:43;;;;;;;18.00;11.87;;;11.20;99.90;;;;;;5076068;28;20170;-64
2022/04/29 07:49:09;;;;;;;18.90;11.97;;;11.20;99.90;;;;;;5076303;28;20189;-64
2022/04/29 07:51:36;;;;;;;17.97;11.97;;;11.10;99.90;;;;;;5076247;28;20181;-64
2022/04/29 07:54:03;;;;;;;22.80;12.67;;;11.00;99.90;;;;;;5075754;28;20190;-65
2022/04/29 07:56:29;;;;;;;24.03;12.83;;;10.80;99.90;;;;;;5076348;28;20177;-64
2022/04/29 07:58:55;;;;;;;18.70;11.23;;;10.80;99.90;;;;;;5075874;28;20716;-64
2022/04/29 08:01:21;;;;;;;23.60;12.03;;;10.70;99.90;;;;;;5075895;28;20268;-65
2022/04/29 08:03:47;;;;;;;16.43;11.40;;;10.70;99.90;;;;;;5075653;28;20632;-64
2022/04/29 08:06:13;;;;;;;19.83;12.90;;;10.70;99.90;;;;;;5075193;28;20185;-64
2022/04/29 08:08:39;;;;;;;18.83;11.10;;;10.70;99.90;;;;;;5075518;28;20174;-64
2022/04/29 08:11:05;;;;;;;20.07;12.30;;;10.90;99.90;;;;;;5075329;28;20185;-64
2022/04/29 08:13:31;;;;;;;17.00;11.50;;;11.10;99.90;;;;;;5075420;28;20220;-64
2022/04/29 08:15:58;;;;;;;18.57;11.70;;;11.30;99.90;;;;;;5074222;28;20182;-65
2022/04/29 08:18:25;;;;;;;19.07;12.37;;;11.40;99.90;;;;;;5075501;28;20215;-64
2022/04/29 08:20:52;;;;;;;17.27;11.80;;;11.40;99.90;;;;;;5075621;28;20174;-64
2022/04/29 08:23:17;;;;;;;23.50;12.33;;;11.70;99.90;;;;;;5075397;28;20276;-64
2022/04/29 08:25:43;;;;;;;19.70;11.80;;;12.10;99.90;;;;;;5073924;28;20238;-65
2022/04/29 08:28:09;;;;;;;18.55;11.18;;;12.50;99.90;;;;;;5075562;28;20231;-64
2022/04/29 08:30:36;;;;;;;19.90;11.80;;;12.70;99.90;;;;;;5075305;28;20299;-64
2022/04/29 08:33:01;;;;;;;15.95;11.32;;;12.80;99.90;;;;;;5076172;28;20213;-65
2022/04/29 08:35:29;;;;;;;17.63;11.73;;;13.10;99.90;;;;;;5074152;28;20185;-65
2022/04/29 08:37:56;;;;;;;21.17;11.43;;;13.40;99.90;;;;;;5073605;28;20300;-64
2022/04/29 08:40:24;;;;;;;17.58;10.63;;;13.50;99.90;;;;;;5073389;28;20177;-64
2022/04/29 08:42:50;;;;;;;15.57;10.77;;;13.90;99.90;;;;;;5074868;28;20189;-64
2022/04/29 08:45:17;;;;;;;16.27;10.55;;;14.30;99.90;;;;;;5075108;28;20638;-64
2022/04/29 08:47:45;;;;;;;18.95;9.88;;;14.40;99.90;;;;;;5075131;28;20184;-65
2022/04/29 08:50:16;;;;;;;15.23;11.15;;;14.50;99.90;;;;;;5074798;28;20309;-65
2022/04/29 08:52:42;;;;;;;16.15;10.02;;;14.70;99.90;;;;;;5074935;28;20209;-65
2022/04/29 09:00:41;;;;;;;14.90;9.88;;;15.90;99.90;;;;;;5074822;28;20169;-62
2022/04/29 09:03:25;;;;;;;13.43;9.43;;;16.00;99.90;;;;;;5074628;28;20189;-63
2022/04/29 09:05:51;;;;;;;17.33;10.10;;;16.10;99.90;;;;;;5074803;28;20154;-62
2022/04/29 09:08:20;;;;;;;14.65;9.60;;;15.90;99.90;;;;;;5072986;28;20667;-63
2022/04/29 09:10:59;;;;;;;18.17;10.35;;;15.60;99.90;;;;;;5074004;28;20281;-62
2022/04/29 09:13:27;;;;;;;16.95;9.98;;;15.70;99.90;;;;;;5074462;28;20209;-62
2022/04/29 09:16:00;;;;;;;14.52;9.77;;;15.40;99.90;;;;;;5074266;28;20212;-62
2022/04/29 09:18:35;;;;;;;14.80;10.07;;;15.30;99.90;;;;;;5073844;28;20231;-62
2022/04/29 09:21:08;;;;;;;16.60;10.43;;;15.30;99.90;;;;;;5072903;28;20213;-65
2022/04/29 09:23:37;;;;;;;17.92;10.40;;;15.20;99.90;;;;;;5074315;28;20268;-65
2022/04/29 09:26:05;;;;;;;17.02;9.45;;;15.00;99.90;;;;;;5073708;28;20178;-65
2022/04/29 09:28:33;;;;;;;17.77;9.45;;;14.80;99.90;;;;;;5074006;28;20207;-65
2022/04/29 09:31:00;;;;;;;15.38;9.18;;;14.70;99.90;;;;;;5074204;28;20173;-65
2022/04/29 09:33:26;;;;;;;13.07;8.23;;;14.70;99.90;;;;;;5072527;28;20237;-65
2022/04/29 09:35:54;;;;;;;13.13;8.82;;;14.70;99.90;;;;;;5074123;28;20170;-65
2022/04/29 09:41:06;;;;;;;18.92;9.25;;;14.60;99.90;;;;;;5073610;28;20753;-65
2022/04/29 09:43:44;;;;;;;11.57;7.90;;;14.70;99.90;;;;;;5072478;28;20207;-65
2022/04/29 09:46:14;;;;;;;16.45;8.40;;;14.60;99.90;;;;;;5073767;28;20170;-65
2022/04/29 09:48:56;;;;;;;13.93;9.02;;;14.50;99.90;;;;;;5073684;28;20170;-65
2022/04/29 09:51:51;;;;;;;15.90;8.77;;;14.60;99.90;;;;;;5072408;28;20178;-64
2022/04/29 09:54:21;;;;;;;16.95;9.23;;;14.60;99.90;;;;;;5073299;28;20201;-64
2022/04/29 09:57:01;;;;;;;11.93;9.00;;;14.40;99.90;;;;;;5073598;28;20205;-65
2022/04/29 09:59:33;;;;;;;16.00;9.18;;;14.60;99.90;;;;;;5073760;28;20156;-65
2022/04/29 10:02:01;;;;;;;12.63;8.75;;;14.60;99.90;;;;;;5073899;28;20254;-65
2022/04/29 10:04:30;;;;;;;16.88;9.15;;;14.70;99.90;;;;;;5073439;28;20592;-65
2022/04/29 10:06:58;;;;;;;12.23;9.35;;;14.70;99.90;;;;;;5072235;28;20552;-65
2022/04/29 10:09:29;;;;;;;17.27;9.88;;;15.00;99.90;;;;;;5073193;28;20694;-65
2022/04/29 10:11:57;;;;;;;14.00;9.27;;;15.10;99.90;;;;;;5073386;28;20200;-65
2022/04/29 10:14:24;;;;;;;17.73;9.55;;;15.40;99.90;;;;;;5073397;28;20335;-65
2022/04/29 10:21:15;;;;;;;13.13;8.93;;;15.60;99.90;;;;;;5073418;28;20312;-65
2022/04/29 10:22:32;;;;;;;18.98;9.65;;;15.80;99.90;;;;;;5073627;28;20673;-65
2022/04/29 10:24:58;;;;;;;18.75;9.93;;;15.60;99.90;;;;;;5073385;28;20170;-65
2022/04/29 10:27:26;;;;;;;16.85;11.38;;;15.40;99.90;;;;;;5074072;28;20158;-64
2022/04/29 10:29:52;;;;;;;20.40;10.90;;;15.30;99.90;;;;;;5075345;28;20185;-64
2022/04/29 10:32:18;;;;;;;17.15;10.82;;;15.20;99.90;;;;;;5077286;28;20223;-64
2022/04/29 10:34:43;;;;;;;14.93;9.45;;;15.00;99.90;;;;;;5077740;28;20170;-65
2022/04/29 10:37:11;;;;;;;21.95;10.70;;;15.00;99.90;;;;;;5077738;28;20170;-64
2022/04/29 10:39:38;;;;;;;14.45;10.25;;;15.00;99.90;;;;;;5076965;28;20174;-65
2022/04/29 10:42:08;;;;;;;16.17;10.15;;;15.10;99.90;;;;;;5077850;28;20177;-64
2022/04/29 10:44:34;;;;;;;14.98;9.57;;;15.00;99.90;;;;;;5077507;28;20189;-64
2022/04/29 10:47:41;;;;;;;17.48;9.88;;;14.90;99.90;;;;;;5077211;28;20203;-65
2022/04/29 10:50:30;;;;;;;16.45;9.45;;;14.90;99.90;;;;;;5075537;28;20186;-65
2022/04/29 10:52:59;;;;;;;17.10;10.10;;;15.00;99.90;;;;;;5067410;28;20248;-64
2022/04/29 10:55:26;;;;;;;13.27;8.65;;;15.20;99.90;;;;;;5076755;28;20170;-64
2022/04/29 10:57:52;;;;;;;14.75;9.43;;;15.30;99.90;;;;;;5076980;28;20537;-64
2022/04/29 11:00:22;;;;;;;14.90;8.95;;;15.50;99.90;;;;;;5077264;28;20188;-65
2022/04/29 11:02:47;;;;;;;14.07;9.18;;;15.80;99.90;;;;;;5075830;28;20194;-65
2022/04/29 11:05:32;;;;;;;18.85;9.68;;;16.30;99.90;;;;;;5076877;28;20178;-64
2022/04/29 11:08:09;;;;;;;17.88;10.30;;;16.70;99.90;;;;;;5076865;28;20521;-65
2022/04/29 11:11:04;;;;;;;14.23;9.50;;;17.10;99.90;;;;;;5076399;28;20189;-65
2022/04/29 11:13:34;;;;;;;13.63;9.70;;;17.50;99.90;;;;;;5075892;28;20217;-65
2022/04/29 11:16:15;;;;;;;21.05;9.38;;;17.60;99.90;;;;;;5077079;28;20673;-65
2022/04/29 11:18:43;;;;;;;17.15;9.82;;;17.40;99.90;;;;;;5077193;28;20197;-65
2022/04/29 11:26:48;;;;;;;17.35;9.57;;;16.90;99.90;;;;;;5076506;28;20224;-64
2022/04/29 11:29:14;;;;;;;14.07;9.20;;;17.00;99.90;;;;;;5076763;28;20178;-65
2022/04/29 11:31:41;;;;;;;19.95;9.77;;;17.00;99.90;;;;;;5076508;28;20177;-64
2022/04/29 11:34:14;;;;;;;17.25;9.35;;;16.90;99.90;;;;;;5076760;28;20647;-64
2022/04/29 11:36:41;;;;;;;17.50;9.30;;;17.10;99.90;;;;;;5076518;28;20196;-65
2022/04/29 11:39:15;;;;;;;18.15;9.60;;;17.20;99.90;;;;;;5076334;28;20575;-65
2022/04/29 11:41:58;;;;;;;15.32;8.65;;;17.50;99.90;;;;;;5074850;28;20260;-64
2022/04/29 11:44:45;;;;;;;16.10;9.70;;;17.50;99.90;;;;;;5076172;28;20196;-64
2022/04/29 11:47:13;;;;;;;18.35;9.85;;;17.40;99.90;;;;;;5076409;28;20150;-64
2022/04/29 11:49:39;;;;;;;18.48;9.43;;;17.20;99.90;;;;;;5076074;28;20544;-64
2022/04/29 11:52:23;;;;;;;16.58;9.75;;;17.20;99.90;;;;;;5076152;28;20201;-64
2022/04/29 11:55:06;;;;;;;16.10;9.50;;;17.40;99.90;;;;;;5076269;28;20170;-65
2022/04/29 11:57:34;;;;;;;14.75;8.70;;;17.80;99.90;;;;;;5075987;28;20162;-63
2022/04/29 12:00:01;;;;;;;20.67;10.30;;;18.00;99.90;;;;;;5076281;28;20170;-65
2022/04/29 12:02:28;;;;;;;15.38;9.20;;;18.00;99.90;;;;;;5075678;28;20162;-65
2022/04/29 12:05:04;;;;;;;16.50;8.57;;;18.00;99.90;;;;;;5075842;28;20252;-65
2022/04/29 12:07:41;;;;;;;15.00;9.30;;;17.90;99.90;;;;;;5075623;28;20642;-65
2022/04/29 12:10:23;;;;;;;17.08;8.95;;;17.80;99.90;;;;;;5075606;28;20173;-65
2022/04/29 12:13:09;;;;;;;14.57;8.20;;;17.90;99.90;;;;;;5075635;28;20285;-65
2022/04/29 12:15:38;;;;;;;13.35;8.77;;;18.00;99.90;;;;;;5075724;28;20205;-63
2022/04/29 12:18:09;;;;;;;18.05;9.48;;;18.00;99.90;;;;;;5075510;28;20260;-64
2022/04/29 12:20:37;;;;;;;13.25;9.70;;;17.90;99.90;;;;;;5075411;28;20153;-63
2022/04/29 12:23:22;;;;;;;17.13;9.48;;;17.70;99.90;;;;;;5075431;28;20186;-63
2022/04/29 12:25:49;;;;;;;13.98;9.60;;;17.40;99.90;;;;;;5073951;28;20170;-63
2022/04/29 12:28:19;;;;;;;12.05;9.27;;;17.30;99.90;;;;;;5075662;28;20239;-63
2022/04/29 12:36:51;;;;;;;12.15;8.02;;;17.20;99.90;;;;;;5076223;28;20685;-64
2022/04/29 12:39:24;;;;;;;14.65;8.95;;;17.10;99.90;;;;;;5076272;28;20224;-64
2022/04/29 12:42:02;;;;;;;15.07;8.82;;;17.20;99.90;;;;;;5075802;28;20241;-63
2022/04/29 12:47:31;;;;;;;15.68;9.05;;;17.20;99.90;;;;;;5075097;28;20173;-64
2022/04/29 12:50:23;;;;;;;14.77;8.93;;;17.30;99.90;;;;;;5073662;28;20178;-63
2022/04/29 12:53:01;;;;;;;17.38;10.30;;;17.40;99.90;;;;;;5074152;28;20324;-64
2022/04/29 12:55:30;;;;;;;14.57;9.00;;;17.50;99.90;;;;;;5074892;28;20157;-66
2022/04/29 12:58:08;;;;;;;15.00;9.18;;;17.60;99.90;;;;;;5075199;28;20195;-66
2022/04/29 13:00:35;;;;;;;18.08;10.00;;;17.60;99.90;;;;;;5075166;28;20192;-63
2022/04/29 13:03:09;;;;;;;15.10;9.55;;;17.50;99.90;;;;;;5074642;28;20197;-64
2022/04/29 13:05:35;;;;;;;20.13;9.35;;;17.20;99.90;;;;;;5075173;28;20208;-63
2022/04/29 13:08:03;;;;;;;20.23;9.98;;;17.00;99.90;;;;;;5074610;28;20209;-63
2022/04/29 13:10:29;;;;;;;13.88;9.85;;;16.90;99.90;;;;;;5074297;28;20177;-63
2022/04/29 13:12:56;;;;;;;15.98;9.25;;;16.80;99.90;;;;;;5074690;28;20225;-63
2022/04/29 13:15:22;;;;;;;13.85;9.93;;;16.70;99.90;;;;;;5074394;28;20173;-64
2022/04/29 13:17:48;;;;;;;17.60;10.38;;;16.50;99.90;;;;;;5074507;28;20175;-63
2022/04/29 13:20:13;;;;;;;13.43;9.55;;;16.40;99.90;;;;;;5074411;28;20583;-63